Rome, Italy

5:43 AM CEST on August 28, 2016 (GMT +0200)
ROMAEST 90m. slm | | Change Station

Elev 154 ft 41.87 °N, 12.58 °E | Updated 2 seconds ago

Clear
Clear
71.4 °F
Feels Like 75 °F
N
0.9
Wind Variable Wind from NE
Gusts 2.2 mph

Today
High -- | Low -- °F
--% Chance of Precip.
Yesterday
High -- | Low -- °F
Precip. -- in
Pressure 30.06 in
Visibility -9999.0 miles
Clouds
Heat Index 75 °F
Dew Point 59.1 °F
Humidity 65%
Rainfall 0.00 in
Snow Depth Not available.
6:31 AM 7:49 PM
Waning Crescent, 19% visible
METAR LIRE 280255Z 02003KT CAVOK 21/20 Q1018 RMK SKC VIS MIN 9999 WIND THR13 04002KT WIND THR31 03003KT BLU
Pressure 30.06 in
Visibility -9999.0 miles
Clouds
Heat Index 75 °F
Dew Point 59.1 °F
Humidity 65%
Rainfall 0.00 in
Snow Depth Not available.
6:31 AM 7:49 PM
Waning Crescent, 19% visible
METAR LIRE 280255Z 02003KT CAVOK 21/20 Q1018 RMK SKC VIS MIN 9999 WIND THR13 04002KT WIND THR31 03003KT BLU

10-Day Weather Forecast

×

Almanac

Astronomy

Aug. 28, 2016 Rise Set
Actual Time
Civil Twilight
Nautical Twilight
Astronomical Twilight
Moon
Length of Visible Light
Length of Day
Tomorrow will be .
, % of the Moon is Illuminated

Today's Extremes

Country Highs Country Lows

Community

WunderPhotos

Upload Photos

1,935,519 photos uploaded!

WunderBlog® & News

Nearby

Air Quality

  Air Quality AQ Index Pollutant
Not available.

Snow Depth

Station Depth Elevation

Earthquake Activity

City Distance Mag. Time & Date
Minimum magnitude displayed is 2.5.

Coastal Water Temperatures

Place Temperature

Stations

Nearby Weather Stations

Station Location Temp. Windchill Dew Point Humidity Wind Precip. Elev Updated Type